Time;durP1;ratioP1;P1;durP2;ratioP2;P2;SDS_P1;SDS_P2;PMS_P1;PMS_P2;Temp;Humidity;BMP_temperature;BMP_pressure;BME280_temperature;BME280_humidity;BME280_pressure;Samples;Min_cycle;Max_cycle;Signal;HPM_P1;HPM_P2
2022/06/19 00:01:28;;;;;;;0.32;0.32;;;15.30;96.30;;;;;;5098415;28;20048;-79
2022/06/19 00:03:55;;;;;;;3.28;0.57;;;15.40;96.30;;;;;;5097659;28;20074;-78
2022/06/19 00:06:23;;;;;;;0.45;0.20;;;15.30;96.90;;;;;;5098160;28;20100;-79
2022/06/19 00:08:49;;;;;;;0.00;0.00;;;15.30;97.00;;;;;;5081093;28;20059;-79
2022/06/19 00:11:18;;;;;;;0.43;0.28;;;15.30;96.70;;;;;;5098068;28;20039;-79
2022/06/19 00:13:44;;;;;;;0.10;0.10;;;15.30;96.70;;;;;;5097914;28;20077;-79
2022/06/19 00:16:10;;;;;;;0.00;0.00;;;15.30;96.60;;;;;;5098122;28;20445;-79
2022/06/19 00:18:38;;;;;;;0.25;0.25;;;15.30;96.90;;;;;;5098263;28;20102;-79
2022/06/19 00:21:05;;;;;;;0.17;0.13;;;15.20;97.00;;;;;;5098019;28;20040;-78
2022/06/19 00:23:31;;;;;;;0.00;0.00;;;15.20;96.80;;;;;;5081077;28;20047;-79
2022/06/19 00:25:56;;;;;;;0.10;0.05;;;15.20;96.60;;;;;;5097772;28;20047;-79
2022/06/19 00:28:23;;;;;;;0.00;0.00;;;15.20;97.10;;;;;;5098346;28;20134;-79
2022/06/19 00:30:48;;;;;;;0.00;0.00;;;15.20;97.20;;;;;;5097549;28;20043;-79
2022/06/19 00:33:14;;;;;;;0.00;0.00;;;15.10;97.20;;;;;;5080780;28;20042;-79
2022/06/19 00:35:40;;;;;;;0.00;0.00;;;15.10;97.30;;;;;;5080756;28;20453;-79
2022/06/19 00:38:06;;;;;;;0.00;0.00;;;15.10;97.00;;;;;;5097615;28;20061;-79
2022/06/19 00:40:32;;;;;;;0.00;0.00;;;15.10;97.20;;;;;;5097877;28;20477;-79
2022/06/19 00:42:58;;;;;;;0.00;0.00;;;15.10;97.10;;;;;;5097636;28;20089;-79
2022/06/19 00:45:42;;;;;;;0.00;0.00;;;15.00;97.30;;;;;;5080607;28;20109;-79
2022/06/19 00:48:18;;;;;;;0.35;0.35;;;15.00;96.90;;;;;;5097560;28;20055;-79
2022/06/19 00:50:47;;;;;;;0.00;0.00;;;15.00;97.30;;;;;;5097651;28;20047;-79
2022/06/19 00:53:27;;;;;;;0.00;0.00;;;15.00;97.40;;;;;;5080289;28;20487;-79
2022/06/19 00:55:53;;;;;;;0.00;0.00;;;14.90;97.50;;;;;;5097400;28;20056;-79
2022/06/19 00:58:18;;;;;;;1.10;0.35;;;15.00;97.80;;;;;;5079403;28;20533;-79
2022/06/19 01:00:50;;;;;;;0.00;0.00;;;14.90;97.40;;;;;;5097077;28;20047;-79
2022/06/19 01:03:22;;;;;;;0.00;0.00;;;14.90;97.40;;;;;;5097424;28;20050;-79
2022/06/19 01:05:49;;;;;;;0.00;0.00;;;15.00;97.50;;;;;;5097334;28;20051;-79
2022/06/19 01:08:15;;;;;;;0.00;0.00;;;14.90;97.60;;;;;;5097095;28;20387;-79
2022/06/19 01:10:45;;;;;;;0.00;0.00;;;14.90;97.30;;;;;;5097280;28;20459;-79
2022/06/19 01:13:14;;;;;;;0.20;0.15;;;14.90;97.40;;;;;;5096499;28;20052;-80
2022/06/19 01:15:40;;;;;;;0.00;0.00;;;14.90;97.70;;;;;;5096792;28;20510;-80
2022/06/19 01:18:07;;;;;;;0.00;0.00;;;15.00;97.70;;;;;;5096939;28;20066;-79
2022/06/19 01:20:35;;;;;;;0.35;0.35;;;14.90;97.60;;;;;;5096789;28;20135;-79
2022/06/19 01:23:13;;;;;;;0.00;0.00;;;14.90;97.90;;;;;;5079799;28;20051;-79
2022/06/19 01:25:41;;;;;;;4.38;0.43;;;14.90;97.60;;;;;;5096562;28;20065;-79
2022/06/19 01:31:02;;;;;;;0.50;0.50;;;14.90;97.90;;;;;;5097024;28;20050;-80
2022/06/19 01:33:38;;;;;;;0.00;0.00;;;14.90;98.00;;;;;;5096577;28;20293;-80
2022/06/19 01:36:05;;;;;;;0.00;0.00;;;14.90;97.90;;;;;;5079447;28;20116;-79
2022/06/19 01:38:33;;;;;;;0.20;0.20;;;14.90;98.00;;;;;;5096214;28;20406;-80
2022/06/19 01:41:06;;;;;;;0.00;0.00;;;14.90;98.00;;;;;;5096572;28;20039;-79
2022/06/19 01:43:33;;;;;;;0.00;0.00;;;14.80;97.80;;;;;;5097016;28;20441;-80
2022/06/19 01:46:00;;;;;;;0.25;0.25;;;14.80;97.80;;;;;;5079170;28;20538;-80
2022/06/19 01:48:29;;;;;;;0.00;0.00;;;14.80;97.80;;;;;;5096517;28;20040;-79
2022/06/19 01:50:56;;;;;;;4.68;0.75;;;14.70;97.80;;;;;;5096256;28;20386;-79
2022/06/19 01:53:36;;;;;;;0.00;0.00;;;14.70;97.60;;;;;;5080035;28;20052;-80
2022/06/19 01:56:04;;;;;;;0.13;0.05;;;14.70;97.60;;;;;;5096431;28;20056;-80
2022/06/19 01:58:33;;;;;;;0.10;0.10;;;14.70;97.60;;;;;;5096351;28;20099;-79
2022/06/19 02:00:58;;;;;;;0.05;0.00;;;14.70;97.50;;;;;;5096308;28;20128;-79
2022/06/19 02:03:34;;;;;;;0.00;0.00;;;14.70;97.60;;;;;;5096147;28;20089;-79
2022/06/19 02:06:00;;;;;;;0.00;0.00;;;14.70;97.80;;;;;;5096619;28;20040;-79
2022/06/19 02:08:28;;;;;;;0.00;0.00;;;14.70;97.90;;;;;;5096014;28;20483;-79
2022/06/19 02:10:54;;;;;;;0.63;0.35;;;14.60;98.10;;;;;;5079487;28;20047;-80
2022/06/19 02:13:22;;;;;;;0.00;0.00;;;14.70;97.70;;;;;;5095944;28;20126;-79
2022/06/19 02:15:49;;;;;;;0.00;0.00;;;14.70;97.80;;;;;;5096116;28;20050;-79
2022/06/19 02:18:24;;;;;;;0.10;0.10;;;14.70;97.80;;;;;;5096082;28;20049;-79
2022/06/19 02:20:51;;;;;;;0.10;0.00;;;14.70;97.90;;;;;;5079504;28;20054;-79
2022/06/19 02:23:20;;;;;;;0.00;0.00;;;14.80;97.40;;;;;;5096065;28;20134;-79
2022/06/19 02:25:47;;;;;;;0.10;0.10;;;14.70;97.50;;;;;;5079251;28;20140;-79
2022/06/19 02:28:13;;;;;;;0.00;0.00;;;14.80;97.60;;;;;;5096123;28;20091;-79
2022/06/19 02:30:40;;;;;;;0.45;0.32;;;14.80;97.40;;;;;;5096309;28;20044;-79
2022/06/19 02:33:06;;;;;;;0.00;0.00;;;14.80;97.30;;;;;;5095936;28;20075;-79
2022/06/19 02:35:32;;;;;;;0.00;0.00;;;14.80;97.10;;;;;;5096077;28;20539;-79
2022/06/19 02:37:58;;;;;;;0.00;0.00;;;14.80;96.80;;;;;;5096065;28;20135;-79
2022/06/19 02:40:34;;;;;;;0.00;0.00;;;14.80;96.50;;;;;;5095502;28;20452;-79
2022/06/19 02:43:00;;;;;;;0.00;0.00;;;14.70;96.40;;;;;;5079101;28;20039;-79
2022/06/19 02:45:32;;;;;;;0.00;0.00;;;14.80;96.50;;;;;;5095884;28;20112;-79
2022/06/19 02:47:59;;;;;;;0.00;0.00;;;14.70;95.70;;;;;;5079246;28;20044;-80
2022/06/19 02:50:31;;;;;;;0.00;0.00;;;14.70;95.30;;;;;;5096212;28;20134;-80
2022/06/19 02:52:56;;;;;;;0.00;0.00;;;14.70;95.50;;;;;;5095316;28;20502;-80
2022/06/19 02:55:23;;;;;;;0.00;0.00;;;14.60;95.20;;;;;;5095771;28;20239;-80
2022/06/19 02:57:49;;;;;;;0.00;0.00;;;14.60;94.80;;;;;;5078686;28;20540;-79
2022/06/19 03:00:21;;;;;;;0.00;0.00;;;14.60;94.80;;;;;;5098568;28;20479;-79
2022/06/19 03:02:50;;;;;;;0.08;0.08;;;14.60;95.00;;;;;;5099346;28;20495;-80
2022/06/19 03:05:21;;;;;;;0.08;0.08;;;14.60;95.00;;;;;;5099394;28;20054;-80
2022/06/19 03:07:47;;;;;;;0.00;0.00;;;14.60;94.80;;;;;;5082561;28;20043;-80
2022/06/19 03:10:13;;;;;;;0.00;0.00;;;14.60;94.90;;;;;;5100118;28;20044;-80
2022/06/19 03:12:39;;;;;;;0.10;0.00;;;14.60;95.00;;;;;;5099458;28;20039;-80
2022/06/19 03:15:05;;;;;;;0.30;0.10;;;14.70;95.10;;;;;;5099102;28;20543;-80
2022/06/19 03:17:31;;;;;;;0.10;0.10;;;14.60;95.00;;;;;;5099266;28;20372;-80
2022/06/19 03:19:56;;;;;;;0.00;0.00;;;14.60;94.90;;;;;;5082258;28;20043;-80
2022/06/19 03:22:22;;;;;;;1.08;0.32;;;14.60;95.20;;;;;;5099091;28;20047;-79
2022/06/19 03:24:48;;;;;;;0.20;0.20;;;14.60;95.10;;;;;;5099311;28;20043;-80
2022/06/19 03:27:15;;;;;;;0.05;0.03;;;14.70;94.60;;;;;;5099116;28;20039;-81
2022/06/19 03:29:41;;;;;;;0.00;0.00;;;14.70;94.70;;;;;;5098805;28;20051;-80
2022/06/19 03:32:10;;;;;;;0.00;0.00;;;14.70;94.80;;;;;;5099168;28;20039;-80
2022/06/19 03:34:36;;;;;;;0.30;0.30;;;14.70;95.20;;;;;;5080997;28;20052;-80
2022/06/19 03:37:01;;;;;;;0.32;0.08;;;14.70;95.30;;;;;;5081880;28;20051;-80
2022/06/19 03:39:27;;;;;;;17.52;0.93;;;14.60;96.40;;;;;;5098810;28;20479;-80
2022/06/19 03:41:52;;;;;;;0.03;0.03;;;14.60;96.80;;;;;;5081511;28;20065;-79
2022/06/19 03:44:18;;;;;;;0.03;0.03;;;14.50;97.50;;;;;;5081908;28;20098;-80
2022/06/19 03:46:44;;;;;;;0.00;0.00;;;14.50;97.40;;;;;;5098802;28;20549;-79
2022/06/19 03:49:10;;;;;;;0.20;0.20;;;14.30;98.10;;;;;;5081809;28;20489;-79
2022/06/19 03:51:36;;;;;;;0.00;0.00;;;14.30;99.20;;;;;;5081412;28;20090;-79
2022/06/19 03:54:02;;;;;;;0.00;0.00;;;14.30;99.00;;;;;;5097144;28;20101;-79
2022/06/19 03:56:30;;;;;;;0.00;0.00;;;14.30;99.40;;;;;;5096545;28;20047;-79
2022/06/19 03:58:57;;;;;;;1.27;0.22;;;14.30;99.90;;;;;;5097022;28;20425;-79
2022/06/19 04:01:30;;;;;;;0.00;0.00;;;14.30;99.90;;;;;;5098388;28;20058;-79
2022/06/19 04:03:57;;;;;;;0.85;0.10;;;14.30;99.80;;;;;;5098382;28;20093;-79
2022/06/19 04:06:26;;;;;;;0.15;0.10;;;14.20;99.90;;;;;;5098237;28;20078;-80
2022/06/19 04:08:52;;;;;;;0.00;0.00;;;14.30;99.90;;;;;;5081156;28;20059;-79
2022/06/19 04:11:20;;;;;;;0.73;0.65;;;14.30;99.90;;;;;;5098163;28;20044;-80
2022/06/19 04:13:46;;;;;;;0.35;0.35;;;14.20;99.90;;;;;;5097644;28;20134;-80
2022/06/19 04:16:20;;;;;;;0.08;0.08;;;14.20;99.90;;;;;;5098164;28;20463;-81
2022/06/19 04:18:47;;;;;;;;;;;14.20;99.90;;;;;;5098393;28;20138;-80
2022/06/19 04:21:16;;;;;;;0.00;0.00;;;14.20;99.90;;;;;;5098265;28;20277;-80
2022/06/19 04:23:42;;;;;;;0.95;0.13;;;14.20;99.90;;;;;;5097396;28;20084;-80
2022/06/19 04:26:13;;;;;;;0.32;0.10;;;14.30;99.90;;;;;;5080842;28;20059;-80
2022/06/19 04:28:39;;;;;;;0.00;0.00;;;14.30;99.90;;;;;;5097847;28;20063;-80
2022/06/19 04:31:05;;;;;;;0.30;0.30;;;14.30;99.90;;;;;;5080192;28;20148;-79
2022/06/19 04:33:33;;;;;;;0.00;0.00;;;14.30;99.90;;;;;;5080578;28;20047;-79
2022/06/19 04:35:59;;;;;;;0.00;0.00;;;14.40;99.90;;;;;;5097771;28;20047;-80
2022/06/19 04:38:24;;;;;;;0.00;0.00;;;14.50;99.90;;;;;;5097129;28;20521;-79
2022/06/19 04:40:50;;;;;;;0.03;0.03;;;14.40;99.90;;;;;;5080457;28;20062;-80
2022/06/19 04:43:16;;;;;;;0.00;0.00;;;14.40;99.90;;;;;;5097482;28;20076;-79
2022/06/19 04:45:42;;;;;;;0.05;0.00;;;14.50;99.90;;;;;;5097481;28;20421;-79
2022/06/19 04:48:09;;;;;;;4.00;0.75;;;14.40;99.50;;;;;;5080529;28;20469;-79
2022/06/19 04:50:34;;;;;;;5.25;0.88;;;14.40;99.20;;;;;;5080715;28;20134;-79
2022/06/19 04:53:00;;;;;;;0.85;0.35;;;14.40;98.10;;;;;;5097035;28;20135;-80
2022/06/19 04:55:26;;;;;;;0.00;0.00;;;14.40;98.40;;;;;;5080608;28;20141;-79
2022/06/19 04:57:52;;;;;;;0.00;0.00;;;14.40;97.80;;;;;;5097537;28;20413;-80
2022/06/19 05:00:20;;;;;;;0.00;0.00;;;14.50;97.40;;;;;;5080292;28;20047;-79
2022/06/19 05:02:52;;;;;;;0.00;0.00;;;14.50;97.60;;;;;;5097429;28;20508;-79
2022/06/19 05:05:20;;;;;;;0.10;0.10;;;14.60;97.50;;;;;;5097431;28;20411;-79
2022/06/19 05:07:46;;;;;;;0.17;0.05;;;14.70;97.20;;;;;;5080596;28;20091;-79
2022/06/19 05:10:11;;;;;;;0.00;0.00;;;14.80;97.20;;;;;;5096867;28;20152;-80
2022/06/19 05:12:38;;;;;;;0.10;0.10;;;14.90;96.60;;;;;;5096930;28;20043;-80
2022/06/19 05:15:04;;;;;;;0.00;0.00;;;15.00;97.00;;;;;;5079232;28;20190;-79
2022/06/19 05:17:30;;;;;;;0.00;0.00;;;15.20;97.00;;;;;;5097512;28;20040;-79
2022/06/19 05:19:55;;;;;;;0.05;0.05;;;15.30;96.60;;;;;;5097295;28;20491;-79
2022/06/19 05:22:21;;;;;;;0.00;0.00;;;15.40;96.50;;;;;;5096186;28;20040;-79
2022/06/19 05:24:47;;;;;;;0.52;0.20;;;15.50;95.80;;;;;;5096806;28;20051;-79
2022/06/19 05:27:12;;;;;;;0.08;0.00;;;15.70;95.00;;;;;;5096725;28;20056;-79
2022/06/19 05:29:39;;;;;;;0.00;0.00;;;15.70;94.60;;;;;;5079764;28;20100;-79
2022/06/19 05:32:05;;;;;;;0.00;0.00;;;15.70;94.30;;;;;;5096802;28;20387;-79
2022/06/19 05:34:32;;;;;;;0.00;0.00;;;15.70;94.00;;;;;;5095992;28;20056;-79
2022/06/19 05:36:58;;;;;;;0.00;0.00;;;15.70;93.60;;;;;;5079791;28;20367;-79
2022/06/19 05:39:24;;;;;;;0.00;0.00;;;15.70;93.20;;;;;;5096218;28;20047;-79
2022/06/19 05:41:50;;;;;;;0.00;0.00;;;15.60;92.70;;;;;;5096406;28;20050;-79
2022/06/19 05:44:15;;;;;;;0.00;0.00;;;15.50;93.50;;;;;;5079580;28;20050;-79
2022/06/19 05:46:41;;;;;;;0.20;0.20;;;15.40;92.10;;;;;;5079628;28;20511;-79
2022/06/19 05:49:08;;;;;;;0.00;0.00;;;15.40;92.90;;;;;;5096577;28;20122;-79
2022/06/19 05:51:34;;;;;;;0.10;0.03;;;15.40;93.40;;;;;;5096287;28;20051;-79
2022/06/19 05:54:00;;;;;;;0.10;0.10;;;15.40;93.70;;;;;;5079465;28;20047;-79
2022/06/19 05:56:27;;;;;;;0.00;0.00;;;15.30;93.80;;;;;;5079632;28;20047;-80
2022/06/19 05:58:53;;;;;;;0.00;0.00;;;15.30;93.90;;;;;;5096639;28;20520;-79
2022/06/19 06:01:20;;;;;;;0.00;0.00;;;15.30;94.20;;;;;;5096611;28;20130;-80
2022/06/19 06:03:46;;;;;;;0.00;0.00;;;15.20;94.00;;;;;;5079231;28;20503;-80
2022/06/19 06:06:23;;;;;;;0.00;0.00;;;15.20;94.10;;;;;;5096592;28;20047;-80
2022/06/19 06:08:50;;;;;;;0.22;0.08;;;15.20;93.60;;;;;;5096339;28;20047;-79
2022/06/19 06:11:16;;;;;;;0.00;0.00;;;15.20;93.50;;;;;;5096250;28;20050;-79
2022/06/19 06:13:42;;;;;;;0.00;0.00;;;15.30;94.10;;;;;;5078817;28;20112;-79
2022/06/19 06:16:11;;;;;;;0.00;0.00;;;15.30;94.00;;;;;;5079346;28;20051;-79
2022/06/19 06:18:36;;;;;;;0.00;0.00;;;15.50;94.20;;;;;;5096164;28;20044;-79
2022/06/19 06:21:04;;;;;;;0.05;0.00;;;15.50;93.90;;;;;;5096063;28;20043;-79
2022/06/19 06:23:31;;;;;;;0.00;0.00;;;15.50;94.10;;;;;;5096043;28;20051;-80
2022/06/19 06:26:05;;;;;;;0.00;0.00;;;15.40;94.60;;;;;;5079095;28;20075;-80
2022/06/19 06:28:32;;;;;;;0.32;0.20;;;15.40;94.80;;;;;;5096712;28;20104;-80
2022/06/19 06:30:58;;;;;;;0.00;0.00;;;15.30;94.80;;;;;;5079243;28;20048;-79
2022/06/19 06:33:25;;;;;;;0.00;0.00;;;15.30;94.90;;;;;;5099060;28;20040;-79
2022/06/19 06:35:51;;;;;;;0.00;0.00;;;15.30;95.00;;;;;;5082727;28;20192;-80
2022/06/19 06:38:16;;;;;;;0.10;0.10;;;15.20;95.50;;;;;;5082188;28;20059;-79
2022/06/19 06:40:42;;;;;;;0.00;0.00;;;15.20;95.50;;;;;;5099947;28;20099;-80
2022/06/19 06:43:08;;;;;;;0.00;0.00;;;15.20;96.30;;;;;;5083232;28;20490;-80
2022/06/19 06:45:34;;;;;;;0.00;0.00;;;15.30;96.50;;;;;;5099531;28;20059;-79
2022/06/19 06:48:00;;;;;;;0.00;0.00;;;15.20;96.40;;;;;;5100098;28;20043;-79
2022/06/19 06:50:26;;;;;;;0.10;0.00;;;15.20;96.50;;;;;;5099750;28;20044;-79
2022/06/19 06:52:52;;;;;;;2.10;0.63;;;15.20;97.20;;;;;;5099067;28;20556;-79
2022/06/19 06:55:18;;;;;;;0.03;0.00;;;15.20;97.20;;;;;;5099849;28;20040;-80
2022/06/19 06:57:43;;;;;;;0.30;0.20;;;15.20;97.50;;;;;;5099859;28;20075;-79
2022/06/19 07:00:14;;;;;;;0.00;0.00;;;15.20;97.30;;;;;;5099605;28;20047;-80
2022/06/19 07:02:40;;;;;;;0.00;0.00;;;15.20;97.60;;;;;;5099480;28;20536;-80
2022/06/19 07:05:06;;;;;;;0.28;0.28;;;15.20;97.50;;;;;;5099218;28;20039;-79
2022/06/19 07:07:31;;;;;;;0.00;0.00;;;15.20;98.00;;;;;;5099286;28;20381;-80
2022/06/19 07:09:57;;;;;;;0.00;0.00;;;15.20;98.00;;;;;;5099383;28;20387;-79
2022/06/19 07:12:22;;;;;;;0.00;0.00;;;15.20;98.30;;;;;;5099181;28;20487;-79
2022/06/19 07:14:48;;;;;;;5.57;0.52;;;15.20;98.70;;;;;;5098792;28;20039;-80
2022/06/19 07:17:14;;;;;;;0.00;0.00;;;15.20;98.20;;;;;;5082085;28;20048;-79
2022/06/19 07:19:39;;;;;;;0.00;0.00;;;15.30;98.50;;;;;;5099099;28;20050;-79
2022/06/19 07:22:05;;;;;;;0.10;0.10;;;15.20;97.90;;;;;;5098665;28;20404;-79
2022/06/19 07:24:31;;;;;;;0.00;0.00;;;15.20;98.00;;;;;;5098738;28;20387;-79
2022/06/19 07:26:56;;;;;;;0.00;0.00;;;15.10;97.30;;;;;;5098966;28;20079;-80
2022/06/19 07:29:22;;;;;;;0.15;0.00;;;15.10;97.70;;;;;;5098364;28;20059;-80
2022/06/19 07:31:48;;;;;;;0.00;0.00;;;15.10;97.80;;;;;;5098895;28;20065;-80
2022/06/19 07:34:13;;;;;;;0.60;0.05;;;15.10;98.10;;;;;;5098325;28;20051;-80
2022/06/19 07:36:39;;;;;;;0.00;0.00;;;15.10;97.90;;;;;;5098628;28;20156;-80
2022/06/19 07:39:05;;;;;;;0.00;0.00;;;15.10;98.20;;;;;;5082200;28;20083;-79
2022/06/19 07:41:30;;;;;;;0.00;0.00;;;15.10;98.10;;;;;;5098772;28;20079;-79
2022/06/19 07:43:56;;;;;;;0.00;0.00;;;15.10;97.60;;;;;;5098085;28;20044;-79
2022/06/19 07:46:23;;;;;;;0.00;0.00;;;15.20;97.60;;;;;;5098349;28;20436;-79
2022/06/19 07:51:34;;;;;;;0.00;0.00;;;15.00;97.70;;;;;;5098506;28;20047;-79
2022/06/19 07:54:00;;;;;;;1.08;0.52;;;15.00;98.20;;;;;;5098329;28;20401;-79
2022/06/19 07:56:26;;;;;;;0.00;0.00;;;14.90;97.90;;;;;;5098522;28;20051;-80
2022/06/19 07:58:52;;;;;;;0.00;0.00;;;14.90;98.40;;;;;;5098456;28;20099;-79
2022/06/19 08:01:17;;;;;;;0.10;0.10;;;14.90;98.90;;;;;;5098334;28;20035;-80
2022/06/19 08:03:43;;;;;;;0.00;0.00;;;14.90;98.10;;;;;;5098282;28;20074;-79
2022/06/19 08:06:09;;;;;;;0.00;0.00;;;14.90;98.10;;;;;;5099141;28;20039;-80
2022/06/19 08:08:35;;;;;;;0.00;0.00;;;14.90;98.20;;;;;;5097972;28;20134;-79
2022/06/19 08:11:02;;;;;;;0.10;0.10;;;14.80;98.30;;;;;;5098327;28;20131;-79
2022/06/19 08:13:30;;;;;;;0.00;0.00;;;14.80;98.50;;;;;;5098060;28;20043;-80
2022/06/19 08:15:59;;;;;;;0.00;0.00;;;14.80;98.30;;;;;;5098161;28;20134;-80
2022/06/19 08:18:26;;;;;;;0.30;0.30;;;14.80;98.40;;;;;;5097898;28;20044;-79
2022/06/19 08:20:52;;;;;;;0.00;0.00;;;14.80;98.30;;;;;;5098074;28;20077;-79
2022/06/19 08:23:19;;;;;;;0.00;0.00;;;14.90;98.30;;;;;;5098004;28;20365;-79
2022/06/19 08:25:46;;;;;;;0.20;0.20;;;14.90;98.20;;;;;;5081363;28;20055;-79
2022/06/19 08:28:13;;;;;;;0.00;0.00;;;15.00;98.50;;;;;;5081065;28;20081;-79
2022/06/19 08:30:41;;;;;;;0.08;0.03;;;15.10;97.90;;;;;;5097845;28;20547;-80
2022/06/19 08:33:07;;;;;;;0.00;0.00;;;15.00;97.90;;;;;;5098433;28;20035;-79
2022/06/19 08:35:38;;;;;;;0.00;0.00;;;15.10;97.90;;;;;;5097627;28;20047;-79
2022/06/19 08:38:08;;;;;;;0.00;0.00;;;15.10;98.20;;;;;;5098162;28;20050;-79
2022/06/19 08:40:49;;;;;;;0.00;0.00;;;15.10;98.00;;;;;;5085899;27;20410;-81
2022/06/19 08:43:34;;;;;;;0.52;0.17;;;15.00;97.50;;;;;;5116018;27;20043;-78
2022/06/19 08:46:05;;;;;;;0.00;0.00;;;15.10;97.60;;;;;;5115991;27;20047;-79
2022/06/19 08:48:53;;;;;;;0.00;0.00;;;15.10;98.00;;;;;;5115839;27;20039;-79
2022/06/19 08:51:41;;;;;;;0.00;0.00;;;15.00;97.80;;;;;;5115141;27;20047;-79
2022/06/19 08:54:38;;;;;;;0.00;0.00;;;15.00;98.20;;;;;;5098470;27;20057;-79
2022/06/19 08:57:17;;;;;;;0.00;0.00;;;15.00;98.40;;;;;;5114994;27;20525;-79
2022/06/19 09:00:07;;;;;;;0.00;0.00;;;15.00;98.00;;;;;;5115609;27;20047;-79
2022/06/19 09:02:58;;;;;;;0.08;0.08;;;15.10;98.10;;;;;;5114951;27;20051;-79
2022/06/19 09:05:58;;;;;;;0.00;0.00;;;15.10;98.40;;;;;;5116064;27;20051;-79
2022/06/19 09:08:44;;;;;;;0.00;0.00;;;15.20;98.30;;;;;;5033786;28;20092;-79
2022/06/19 09:11:56;;;;;;;0.00;0.00;;;15.20;98.50;;;;;;5032342;28;20056;-79
2022/06/19 09:14:48;;;;;;;3.30;0.65;;;15.10;97.90;;;;;;4993347;28;20065;-79
2022/06/19 09:17:25;;;;;;;0.00;0.00;;;15.20;97.90;;;;;;5010856;28;20145;-80
2022/06/19 09:20:12;;;;;;;0.25;0.25;;;15.20;98.00;;;;;;4994002;28;20112;-79
2022/06/19 09:22:52;;;;;;;0.00;0.00;;;15.20;98.40;;;;;;4992531;28;20054;-80
2022/06/19 09:25:55;;;;;;;0.00;0.00;;;15.20;98.20;;;;;;4994600;28;20058;-80
2022/06/19 09:28:26;;;;;;;0.00;0.00;;;15.30;98.50;;;;;;4994223;28;20045;-80
2022/06/19 09:31:07;;;;;;;0.00;0.00;;;15.40;97.90;;;;;;4994664;28;20537;-79
2022/06/19 09:33:36;;;;;;;0.00;0.00;;;15.50;98.10;;;;;;4978116;28;20086;-79
2022/06/19 09:36:12;;;;;;;0.00;0.00;;;15.50;97.90;;;;;;4996241;28;20115;-80
2022/06/19 09:38:48;;;;;;;0.20;0.08;;;15.70;98.00;;;;;;4996027;28;20054;-79
2022/06/19 09:41:22;;;;;;;0.00;0.00;;;15.80;97.70;;;;;;4979852;28;20056;-79
2022/06/19 09:43:52;;;;;;;;;;;15.90;98.00;;;;;;4980136;28;20092;-79
2022/06/19 09:46:27;;;;;;;0.00;0.00;;;16.10;97.60;;;;;;5094926;27;19920;-79
2022/06/19 09:48:59;;;;;;;0.00;0.00;;;16.30;98.10;;;;;;5117057;27;20047;-79
2022/06/19 09:52:00;;;;;;;0.00;0.00;;;16.40;97.00;;;;;;5099006;28;20508;-79
2022/06/19 09:54:40;;;;;;;0.00;0.00;;;16.50;96.80;;;;;;5117321;27;20191;-79
2022/06/19 09:57:19;;;;;;;0.00;0.00;;;16.50;96.60;;;;;;5116903;28;20046;-79
2022/06/19 10:00:01;;;;;;;0.00;0.00;;;16.50;96.70;;;;;;5099958;27;20057;-79
2022/06/19 10:02:58;;;;;;;1.10;0.45;;;16.50;96.40;;;;;;5116549;28;20099;-79
2022/06/19 10:05:43;;;;;;;0.00;0.00;;;16.50;96.90;;;;;;5117158;28;20047;-79
2022/06/19 10:08:17;;;;;;;0.00;0.00;;;16.50;97.10;;;;;;5116277;28;20506;-79
2022/06/19 10:10:46;;;;;;;4.55;0.35;;;16.50;97.70;;;;;;5116483;28;20054;-79
2022/06/19 10:13:29;;;;;;;2.00;0.90;;;16.60;97.40;;;;;;5116281;28;20050;-79
2022/06/19 10:15:56;;;;;;;0.00;0.00;;;16.70;97.80;;;;;;5099687;28;20044;-80
2022/06/19 10:18:32;;;;;;;0.00;0.00;;;16.80;97.70;;;;;;5116834;28;20043;-80
2022/06/19 10:24:33;;;;;;;0.43;0.30;;;16.90;97.50;;;;;;5116481;28;20486;-79
2022/06/19 10:27:19;;;;;;;0.43;0.25;;;17.00;98.00;;;;;;5099283;28;20039;-79
2022/06/19 10:29:47;;;;;;;0.00;0.00;;;16.90;97.30;;;;;;5018122;28;20057;-80
2022/06/19 10:32:45;;;;;;;0.00;0.00;;;16.90;97.10;;;;;;5034730;28;20564;-79
2022/06/19 10:35:31;;;;;;;0.13;0.10;;;16.90;97.20;;;;;;5034893;28;20065;-79
2022/06/19 10:38:15;;;;;;;0.00;0.00;;;16.80;97.30;;;;;;5034540;28;20045;-80
2022/06/19 10:41:09;;;;;;;0.00;0.00;;;16.90;97.90;;;;;;5035247;28;20067;-79
2022/06/19 10:44:14;;;;;;;0.00;0.00;;;17.10;97.60;;;;;;5034597;28;20061;-80
2022/06/19 10:46:41;;;;;;;0.30;0.25;;;17.30;97.10;;;;;;5033312;28;20053;-84
2022/06/19 10:49:42;;;;;;;0.00;0.00;;;17.30;96.90;;;;;;5033300;28;20068;-83
2022/06/19 10:52:22;;;;;;;0.00;0.00;;;17.40;96.90;;;;;;5028600;28;20060;-79
2022/06/19 10:54:54;;;;;;;0.20;0.20;;;17.40;97.10;;;;;;5033882;28;20103;-79
2022/06/19 10:57:32;;;;;;;0.00;0.00;;;17.50;97.30;;;;;;5034547;28;20501;-79
2022/06/19 10:59:58;;;;;;;0.00;0.00;;;17.50;96.60;;;;;;5017969;28;20529;-79
2022/06/19 11:05:34;;;;;;;0.00;0.00;;;17.40;96.70;;;;;;5034887;28;20056;-79
2022/06/19 11:08:00;;;;;;;0.00;0.00;;;17.30;96.40;;;;;;5113436;28;20050;-79
2022/06/19 11:10:47;;;;;;;0.00;0.00;;;17.30;96.70;;;;;;5115543;28;20055;-79
2022/06/19 11:13:13;;;;;;;0.20;0.00;;;17.20;97.20;;;;;;5115662;28;20047;-79
2022/06/19 11:15:45;;;;;;;0.00;0.00;;;17.20;97.20;;;;;;5115925;28;20047;-79
2022/06/19 11:18:22;;;;;;;0.10;0.00;;;17.20;97.00;;;;;;5116459;28;20047;-79
2022/06/19 11:21:03;;;;;;;0.00;0.00;;;17.20;97.30;;;;;;5119028;27;20550;-80
2022/06/19 11:23:35;;;;;;;0.00;0.00;;;17.10;97.10;;;;;;5119568;27;20047;-80
2022/06/19 11:26:04;;;;;;;0.10;0.00;;;17.00;97.50;;;;;;5118712;27;20043;-80
2022/06/19 11:28:44;;;;;;;0.00;0.00;;;16.80;97.10;;;;;;5103108;27;20047;-80
2022/06/19 11:31:27;;;;;;;1.40;0.20;;;16.70;97.30;;;;;;5119066;27;20051;-80
2022/06/19 11:33:57;;;;;;;0.85;0.30;;;16.60;97.20;;;;;;5118576;27;20055;-80
2022/06/19 11:36:39;;;;;;;0.00;0.00;;;16.60;97.60;;;;;;5118382;27;20097;-80
2022/06/19 11:39:37;;;;;;;0.00;0.00;;;16.50;97.40;;;;;;5119319;27;20043;-80
2022/06/19 11:42:24;;;;;;;0.00;0.00;;;16.40;97.20;;;;;;5118828;27;20498;-80
2022/06/19 11:44:54;;;;;;;0.00;0.00;;;16.40;97.50;;;;;;5118813;27;20391;-86
2022/06/19 11:47:34;;;;;;;0.00;0.00;;;16.30;97.60;;;;;;5098061;28;20078;-79
2022/06/19 11:50:16;;;;;;;0.00;0.00;;;16.30;97.90;;;;;;5098979;28;20112;-80
2022/06/19 11:52:51;;;;;;;0.03;0.00;;;16.30;97.90;;;;;;5094753;28;20377;-80
2022/06/19 11:55:30;;;;;;;0.00;0.00;;;16.30;97.90;;;;;;5095076;28;20052;-80
2022/06/19 11:58:02;;;;;;;0.00;0.00;;;16.40;97.70;;;;;;5078139;28;20063;-80
2022/06/19 12:00:34;;;;;;;0.00;0.00;;;16.40;97.80;;;;;;5093112;28;20052;-80
2022/06/19 12:03:21;;;;;;;0.00;0.00;;;16.40;98.30;;;;;;5055810;28;20060;-80
2022/06/19 12:06:04;;;;;;;0.08;0.08;;;16.40;98.00;;;;;;5072874;28;20442;-81
2022/06/19 12:08:36;;;;;;;0.00;0.00;;;16.40;98.00;;;;;;5056054;28;20044;-80
2022/06/19 12:11:05;;;;;;;0.00;0.00;;;16.40;97.80;;;;;;5071362;28;20416;-80
2022/06/19 12:13:33;;;;;;;0.00;0.00;;;16.40;97.90;;;;;;5071413;28;20060;-80
2022/06/19 12:16:02;;;;;;;0.00;0.00;;;16.30;97.70;;;;;;5055956;28;20051;-79
2022/06/19 12:18:30;;;;;;;0.00;0.00;;;16.30;98.00;;;;;;5072921;28;20080;-80
2022/06/19 12:21:00;;;;;;;0.80;0.43;;;16.30;98.00;;;;;;5072483;28;20047;-79
2022/06/19 12:23:33;;;;;;;0.00;0.00;;;16.30;97.90;;;;;;5091837;28;20074;-79
2022/06/19 12:26:04;;;;;;;0.00;0.00;;;16.30;97.50;;;;;;5107447;28;20117;-81
2022/06/19 12:28:46;;;;;;;0.00;0.00;;;16.40;97.30;;;;;;5076203;28;20064;-80
2022/06/19 12:31:24;;;;;;;0.00;0.00;;;16.50;97.30;;;;;;5091675;28;20040;-80
2022/06/19 12:34:14;;;;;;;0.00;0.00;;;16.60;97.20;;;;;;5075672;28;20040;-80
2022/06/19 12:36:40;;;;;;;0.00;0.00;;;16.90;97.40;;;;;;5092380;28;20159;-80
2022/06/19 12:39:18;;;;;;;1.52;0.60;;;17.20;97.60;;;;;;5092474;28;20127;-79
2022/06/19 12:41:51;;;;;;;0.63;0.20;;;17.50;96.70;;;;;;5071190;28;20473;-80
2022/06/19 12:44:28;;;;;;;0.00;0.00;;;17.80;96.60;;;;;;5066815;28;20430;-79
2022/06/19 12:47:00;;;;;;;0.00;0.00;;;18.00;95.60;;;;;;5075289;28;20139;-80
2022/06/19 12:49:48;;;;;;;0.20;0.20;;;18.20;94.90;;;;;;5076373;28;20134;-80
2022/06/19 12:52:47;;;;;;;0.00;0.00;;;18.40;95.10;;;;;;5083716;28;20048;-80
2022/06/19 12:55:32;;;;;;;0.00;0.00;;;18.40;94.40;;;;;;5093338;28;20496;-80
2022/06/19 12:58:23;;;;;;;0.00;0.00;;;18.20;94.30;;;;;;5094112;28;20124;-80
2022/06/19 13:00:52;;;;;;;0.30;0.00;;;17.90;94.40;;;;;;5076009;28;20059;-80
2022/06/19 13:03:46;;;;;;;0.03;0.03;;;17.80;94.50;;;;;;5079805;28;20062;-85
2022/06/19 13:06:30;;;;;;;0.10;0.00;;;17.60;95.10;;;;;;5083685;28;20051;-80
2022/06/19 13:09:02;;;;;;;0.00;0.00;;;17.50;94.80;;;;;;5110497;28;20047;-80
2022/06/19 13:11:46;;;;;;;0.00;0.00;;;17.40;95.30;;;;;;5076195;28;20147;-80
2022/06/19 13:14:58;;;;;;;0.00;0.00;;;17.40;95.80;;;;;;5093136;28;20105;-80
2022/06/19 13:17:42;;;;;;;0.00;0.00;;;17.40;95.10;;;;;;5111077;28;20094;-80
2022/06/19 13:20:13;;;;;;;0.47;0.37;;;17.30;95.00;;;;;;5093766;28;20048;-80
2022/06/19 13:22:58;;;;;;;0.00;0.00;;;17.40;94.80;;;;;;5082243;28;20040;-87